sensor_id;sensor_type;location;lat;lon;timestamp;P1;durP1;ratioP1;P2;durP2;ratioP2
18711;SDS011;9485;49.386;8.674;2023-06-10T00:01:33;3.08;;;2.78;;
18711;SDS011;9485;49.386;8.674;2023-06-10T00:06:55;3.63;;;3.28;;
18711;SDS011;9485;49.386;8.674;2023-06-10T00:12:15;3.60;;;3.30;;
18711;SDS011;9485;49.386;8.674;2023-06-10T00:17:38;3.47;;;3.17;;
18711;SDS011;9485;49.386;8.674;2023-06-10T00:22:59;3.47;;;3.17;;
18711;SDS011;9485;49.386;8.674;2023-06-10T00:28:21;3.28;;;2.78;;
18711;SDS011;9485;49.386;8.674;2023-06-10T00:33:43;4.18;;;3.20;;
18711;SDS011;9485;49.386;8.674;2023-06-10T00:39:04;3.03;;;2.72;;
18711;SDS011;9485;49.386;8.674;2023-06-10T00:44:25;3.28;;;2.97;;
18711;SDS011;9485;49.386;8.674;2023-06-10T00:49:47;3.25;;;2.95;;
18711;SDS011;9485;49.386;8.674;2023-06-10T00:55:09;3.35;;;3.05;;
18711;SDS011;9485;49.386;8.674;2023-06-10T01:00:30;4.30;;;3.20;;
18711;SDS011;9485;49.386;8.674;2023-06-10T01:05:53;3.00;;;2.63;;
18711;SDS011;9485;49.386;8.674;2023-06-10T01:11:23;3.80;;;3.15;;
18711;SDS011;9485;49.386;8.674;2023-06-10T01:16:53;3.30;;;2.83;;
18711;SDS011;9485;49.386;8.674;2023-06-10T01:22:16;2.90;;;2.40;;
18711;SDS011;9485;49.386;8.674;2023-06-10T01:27:37;3.47;;;3.17;;
18711;SDS011;9485;49.386;8.674;2023-06-10T01:33:02;2.80;;;2.60;;
18711;SDS011;9485;49.386;8.674;2023-06-10T01:38:30;3.03;;;2.72;;
18711;SDS011;9485;49.386;8.674;2023-06-10T01:43:59;3.03;;;2.75;;
18711;SDS011;9485;49.386;8.674;2023-06-10T01:49:20;3.08;;;2.33;;
18711;SDS011;9485;49.386;8.674;2023-06-10T01:54:44;4.88;;;3.15;;
18711;SDS011;9485;49.386;8.674;2023-06-10T02:00:05;2.83;;;2.63;;
18711;SDS011;9485;49.386;8.674;2023-06-10T02:05:58;2.92;;;2.72;;
18711;SDS011;9485;49.386;8.674;2023-06-10T02:11:20;3.83;;;3.40;;
18711;SDS011;9485;49.386;8.674;2023-06-10T02:16:41;3.65;;;3.10;;
18711;SDS011;9485;49.386;8.674;2023-06-10T02:22:05;3.42;;;3.13;;
18711;SDS011;9485;49.386;8.674;2023-06-10T02:27:28;3.63;;;3.20;;
18711;SDS011;9485;49.386;8.674;2023-06-10T02:32:50;3.33;;;3.03;;
18711;SDS011;9485;49.386;8.674;2023-06-10T02:38:12;3.58;;;3.28;;
18711;SDS011;9485;49.386;8.674;2023-06-10T02:43:34;3.40;;;2.97;;
18711;SDS011;9485;49.386;8.674;2023-06-10T02:48:55;3.50;;;3.20;;
18711;SDS011;9485;49.386;8.674;2023-06-10T02:54:17;3.58;;;3.28;;
18711;SDS011;9485;49.386;8.674;2023-06-10T02:59:40;3.63;;;3.22;;
18711;SDS011;9485;49.386;8.674;2023-06-10T03:05:01;4.18;;;3.75;;
18711;SDS011;9485;49.386;8.674;2023-06-10T03:10:22;3.50;;;3.20;;
18711;SDS011;9485;49.386;8.674;2023-06-10T03:15:44;3.83;;;3.45;;
18711;SDS011;9485;49.386;8.674;2023-06-10T03:21:09;4.05;;;3.65;;
18711;SDS011;9485;49.386;8.674;2023-06-10T03:26:31;3.42;;;3.13;;
18711;SDS011;9485;49.386;8.674;2023-06-10T03:31:53;3.55;;;3.25;;
18711;SDS011;9485;49.386;8.674;2023-06-10T03:37:14;3.60;;;3.05;;
18711;SDS011;9485;49.386;8.674;2023-06-10T03:42:37;3.95;;;3.65;;
18711;SDS011;9485;49.386;8.674;2023-06-10T03:48:00;3.90;;;3.50;;
18711;SDS011;9485;49.386;8.674;2023-06-10T03:53:30;5.28;;;3.92;;
18711;SDS011;9485;49.386;8.674;2023-06-10T03:58:51;5.10;;;3.53;;
18711;SDS011;9485;49.386;8.674;2023-06-10T04:04:13;3.70;;;3.40;;
18711;SDS011;9485;49.386;8.674;2023-06-10T04:09:35;4.40;;;3.92;;
18711;SDS011;9485;49.386;8.674;2023-06-10T04:14:56;5.03;;;3.88;;
18711;SDS011;9485;49.386;8.674;2023-06-10T04:20:19;3.97;;;3.45;;
18711;SDS011;9485;49.386;8.674;2023-06-10T04:25:42;3.75;;;3.45;;
18711;SDS011;9485;49.386;8.674;2023-06-10T04:31:03;5.38;;;4.13;;
18711;SDS011;9485;49.386;8.674;2023-06-10T04:36:25;4.22;;;3.83;;
18711;SDS011;9485;49.386;8.674;2023-06-10T04:41:48;4.50;;;4.07;;
18711;SDS011;9485;49.386;8.674;2023-06-10T04:47:08;5.75;;;4.18;;
18711;SDS011;9485;49.386;8.674;2023-06-10T04:52:30;5.30;;;3.67;;
18711;SDS011;9485;49.386;8.674;2023-06-10T04:57:52;4.07;;;3.78;;
18711;SDS011;9485;49.386;8.674;2023-06-10T05:03:13;3.97;;;3.58;;
18711;SDS011;9485;49.386;8.674;2023-06-10T05:08:35;4.30;;;3.90;;
18711;SDS011;9485;49.386;8.674;2023-06-10T05:13:55;4.88;;;4.25;;
18711;SDS011;9485;49.386;8.674;2023-06-10T05:19:16;4.20;;;3.90;;
18711;SDS011;9485;49.386;8.674;2023-06-10T05:24:38;4.40;;;4.00;;
18711;SDS011;9485;49.386;8.674;2023-06-10T05:29:59;5.55;;;4.25;;
18711;SDS011;9485;49.386;8.674;2023-06-10T05:35:21;4.47;;;4.07;;
18711;SDS011;9485;49.386;8.674;2023-06-10T05:40:43;4.28;;;3.88;;
18711;SDS011;9485;49.386;8.674;2023-06-10T05:46:04;3.72;;;3.42;;
18711;SDS011;9485;49.386;8.674;2023-06-10T05:51:25;4.07;;;3.67;;
18711;SDS011;9485;49.386;8.674;2023-06-10T05:56:48;4.28;;;3.90;;
18711;SDS011;9485;49.386;8.674;2023-06-10T06:02:08;4.60;;;4.20;;
18711;SDS011;9485;49.386;8.674;2023-06-10T06:07:29;4.07;;;3.75;;
18711;SDS011;9485;49.386;8.674;2023-06-10T06:12:51;4.13;;;3.80;;
18711;SDS011;9485;49.386;8.674;2023-06-10T06:18:12;4.35;;;4.00;;
18711;SDS011;9485;49.386;8.674;2023-06-10T06:23:33;3.85;;;3.45;;
18711;SDS011;9485;49.386;8.674;2023-06-10T06:28:55;4.28;;;3.67;;
18711;SDS011;9485;49.386;8.674;2023-06-10T06:34:16;3.75;;;3.42;;
18711;SDS011;9485;49.386;8.674;2023-06-10T06:39:36;3.90;;;3.38;;
18711;SDS011;9485;49.386;8.674;2023-06-10T06:44:58;3.60;;;3.10;;
18711;SDS011;9485;49.386;8.674;2023-06-10T06:50:19;3.42;;;3.13;;
18711;SDS011;9485;49.386;8.674;2023-06-10T06:55:39;4.95;;;3.28;;
18711;SDS011;9485;49.386;8.674;2023-06-10T07:01:02;4.10;;;3.60;;
18711;SDS011;9485;49.386;8.674;2023-06-10T07:06:23;3.08;;;2.88;;
18711;SDS011;9485;49.386;8.674;2023-06-10T07:11:44;3.13;;;2.90;;
18711;SDS011;9485;49.386;8.674;2023-06-10T07:17:06;3.17;;;2.85;;
18711;SDS011;9485;49.386;8.674;2023-06-10T07:22:27;4.53;;;3.15;;
18711;SDS011;9485;49.386;8.674;2023-06-10T07:27:49;3.13;;;2.83;;
18711;SDS011;9485;49.386;8.674;2023-06-10T07:33:11;2.80;;;2.60;;
18711;SDS011;9485;49.386;8.674;2023-06-10T07:38:32;2.88;;;2.60;;
18711;SDS011;9485;49.386;8.674;2023-06-10T07:43:53;2.75;;;2.55;;
18711;SDS011;9485;49.386;8.674;2023-06-10T07:49:15;5.82;;;2.85;;
18711;SDS011;9485;49.386;8.674;2023-06-10T07:54:36;3.58;;;2.35;;
18711;SDS011;9485;49.386;8.674;2023-06-10T07:59:57;2.85;;;2.65;;
18711;SDS011;9485;49.386;8.674;2023-06-10T08:05:20;2.65;;;2.45;;
18711;SDS011;9485;49.386;8.674;2023-06-10T08:10:41;3.08;;;2.88;;
18711;SDS011;9485;49.386;8.674;2023-06-10T08:16:02;3.30;;;3.00;;
18711;SDS011;9485;49.386;8.674;2023-06-10T08:21:25;2.97;;;2.67;;
18711;SDS011;9485;49.386;8.674;2023-06-10T08:26:47;4.47;;;3.35;;
18711;SDS011;9485;49.386;8.674;2023-06-10T08:32:07;3.47;;;3.15;;
18711;SDS011;9485;49.386;8.674;2023-06-10T08:37:29;3.28;;;3.03;;
18711;SDS011;9485;49.386;8.674;2023-06-10T08:42:53;3.88;;;3.35;;
18711;SDS011;9485;49.386;8.674;2023-06-10T08:48:24;3.17;;;2.97;;
18711;SDS011;9485;49.386;8.674;2023-06-10T08:53:53;3.30;;;3.08;;
18711;SDS011;9485;49.386;8.674;2023-06-10T08:59:21;6.72;;;2.97;;
18711;SDS011;9485;49.386;8.674;2023-06-10T09:04:45;4.22;;;3.10;;
18711;SDS011;9485;49.386;8.674;2023-06-10T09:10:09;3.78;;;3.47;;
18711;SDS011;9485;49.386;8.674;2023-06-10T09:15:32;3.67;;;3.38;;
18711;SDS011;9485;49.386;8.674;2023-06-10T09:20:53;3.47;;;3.17;;
18711;SDS011;9485;49.386;8.674;2023-06-10T09:26:15;3.42;;;3.13;;
18711;SDS011;9485;49.386;8.674;2023-06-10T09:31:37;3.60;;;3.30;;
18711;SDS011;9485;49.386;8.674;2023-06-10T09:36:59;3.17;;;2.97;;
18711;SDS011;9485;49.386;8.674;2023-06-10T09:42:21;3.33;;;3.03;;
18711;SDS011;9485;49.386;8.674;2023-06-10T09:47:42;4.03;;;3.70;;
18711;SDS011;9485;49.386;8.674;2023-06-10T09:53:06;3.80;;;3.50;;
18711;SDS011;9485;49.386;8.674;2023-06-10T09:58:38;4.20;;;3.70;;
18711;SDS011;9485;49.386;8.674;2023-06-10T10:04:02;3.35;;;3.05;;
18711;SDS011;9485;49.386;8.674;2023-06-10T10:09:24;3.90;;;3.50;;
18711;SDS011;9485;49.386;8.674;2023-06-10T10:14:46;4.80;;;3.03;;
18711;SDS011;9485;49.386;8.674;2023-06-10T10:20:08;4.00;;;3.70;;
18711;SDS011;9485;49.386;8.674;2023-06-10T10:25:38;4.18;;;3.13;;
18711;SDS011;9485;49.386;8.674;2023-06-10T10:31:04;3.45;;;3.20;;
18711;SDS011;9485;49.386;8.674;2023-06-10T10:36:30;3.65;;;3.35;;
18711;SDS011;9485;49.386;8.674;2023-06-10T10:41:52;4.25;;;3.35;;
18711;SDS011;9485;49.386;8.674;2023-06-10T10:47:16;3.53;;;3.25;;
18711;SDS011;9485;49.386;8.674;2023-06-10T10:52:51;3.72;;;3.42;;
18711;SDS011;9485;49.386;8.674;2023-06-10T10:58:14;6.10;;;3.60;;
18711;SDS011;9485;49.386;8.674;2023-06-10T11:03:41;3.38;;;3.17;;
18711;SDS011;9485;49.386;8.674;2023-06-10T11:14:51;3.15;;;2.92;;
18711;SDS011;9485;49.386;8.674;2023-06-10T11:26:22;3.60;;;2.80;;
18711;SDS011;9485;49.386;8.674;2023-06-10T11:31:53;2.90;;;2.70;;
18711;SDS011;9485;49.386;8.674;2023-06-10T11:37:16;3.05;;;2.70;;
18711;SDS011;9485;49.386;8.674;2023-06-10T11:42:38;3.08;;;2.85;;
18711;SDS011;9485;49.386;8.674;2023-06-10T11:48:00;3.42;;;2.95;;
18711;SDS011;9485;49.386;8.674;2023-06-10T11:53:22;3.22;;;2.92;;
18711;SDS011;9485;49.386;8.674;2023-06-10T11:58:43;2.80;;;2.60;;
18711;SDS011;9485;49.386;8.674;2023-06-10T12:04:05;2.53;;;2.38;;
18711;SDS011;9485;49.386;8.674;2023-06-10T12:09:29;2.63;;;2.45;;
18711;SDS011;9485;49.386;8.674;2023-06-10T12:14:52;3.40;;;2.47;;
18711;SDS011;9485;49.386;8.674;2023-06-10T12:20:24;3.25;;;2.38;;
18711;SDS011;9485;49.386;8.674;2023-06-10T12:25:50;2.67;;;2.47;;
18711;SDS011;9485;49.386;8.674;2023-06-10T12:31:12;3.03;;;2.60;;
18711;SDS011;9485;49.386;8.674;2023-06-10T12:36:33;3.28;;;2.83;;
18711;SDS011;9485;49.386;8.674;2023-06-10T12:41:56;2.72;;;2.53;;
18711;SDS011;9485;49.386;8.674;2023-06-10T12:47:17;3.38;;;2.80;;
18711;SDS011;9485;49.386;8.674;2023-06-10T12:52:38;2.95;;;2.65;;
18711;SDS011;9485;49.386;8.674;2023-06-10T12:58:00;2.85;;;2.65;;
18711;SDS011;9485;49.386;8.674;2023-06-10T13:03:21;2.85;;;2.60;;
18711;SDS011;9485;49.386;8.674;2023-06-10T13:08:42;3.00;;;2.80;;
18711;SDS011;9485;49.386;8.674;2023-06-10T13:14:04;3.38;;;2.67;;
18711;SDS011;9485;49.386;8.674;2023-06-10T13:19:25;2.53;;;2.33;;
18711;SDS011;9485;49.386;8.674;2023-06-10T13:24:46;2.70;;;2.50;;
18711;SDS011;9485;49.386;8.674;2023-06-10T13:30:09;2.28;;;2.10;;
18711;SDS011;9485;49.386;8.674;2023-06-10T13:35:30;2.65;;;2.28;;
18711;SDS011;9485;49.386;8.674;2023-06-10T13:40:51;2.50;;;2.30;;
18711;SDS011;9485;49.386;8.674;2023-06-10T13:46:14;2.17;;;2.08;;
18711;SDS011;9485;49.386;8.674;2023-06-10T13:51:35;2.25;;;2.03;;
18711;SDS011;9485;49.386;8.674;2023-06-10T13:56:55;2.60;;;2.40;;
18711;SDS011;9485;49.386;8.674;2023-06-10T14:02:18;2.40;;;2.20;;
18711;SDS011;9485;49.386;8.674;2023-06-10T14:07:39;2.70;;;2.50;;
18711;SDS011;9485;49.386;8.674;2023-06-10T14:13:00;2.20;;;2.03;;
18711;SDS011;9485;49.386;8.674;2023-06-10T14:18:22;2.33;;;2.13;;
18711;SDS011;9485;49.386;8.674;2023-06-10T14:23:43;2.78;;;2.58;;
18711;SDS011;9485;49.386;8.674;2023-06-10T14:29:04;2.80;;;2.60;;
18711;SDS011;9485;49.386;8.674;2023-06-10T14:34:27;2.60;;;2.40;;
18711;SDS011;9485;49.386;8.674;2023-06-10T14:39:52;3.00;;;2.50;;
18711;SDS011;9485;49.386;8.674;2023-06-10T14:45:13;2.60;;;2.40;;
18711;SDS011;9485;49.386;8.674;2023-06-10T14:50:36;3.15;;;2.88;;
18711;SDS011;9485;49.386;8.674;2023-06-10T14:55:57;3.20;;;2.85;;
18711;SDS011;9485;49.386;8.674;2023-06-10T15:07:09;3.33;;;2.88;;
18711;SDS011;9485;49.386;8.674;2023-06-10T15:12:29;3.42;;;3.08;;
18711;SDS011;9485;49.386;8.674;2023-06-10T15:17:50;2.83;;;2.63;;
18711;SDS011;9485;49.386;8.674;2023-06-10T15:23:12;3.75;;;3.45;;
18711;SDS011;9485;49.386;8.674;2023-06-10T15:28:33;3.67;;;3.38;;
18711;SDS011;9485;49.386;8.674;2023-06-10T15:33:54;2.80;;;2.60;;
18711;SDS011;9485;49.386;8.674;2023-06-10T15:39:16;3.28;;;2.97;;
18711;SDS011;9485;49.386;8.674;2023-06-10T15:44:37;3.67;;;3.38;;
18711;SDS011;9485;49.386;8.674;2023-06-10T15:49:58;3.30;;;3.00;;
18711;SDS011;9485;49.386;8.674;2023-06-10T15:55:20;3.30;;;3.10;;
18711;SDS011;9485;49.386;8.674;2023-06-10T16:00:40;3.55;;;3.35;;
18711;SDS011;9485;49.386;8.674;2023-06-10T16:06:01;3.42;;;3.13;;
18711;SDS011;9485;49.386;8.674;2023-06-10T16:11:23;3.10;;;2.85;;
18711;SDS011;9485;49.386;8.674;2023-06-10T16:16:44;3.40;;;3.10;;
18711;SDS011;9485;49.386;8.674;2023-06-10T16:22:05;3.33;;;2.80;;
18711;SDS011;9485;49.386;8.674;2023-06-10T16:27:27;3.50;;;3.20;;
18711;SDS011;9485;49.386;8.674;2023-06-10T16:32:48;3.95;;;3.13;;
18711;SDS011;9485;49.386;8.674;2023-06-10T16:38:09;4.07;;;3.30;;
18711;SDS011;9485;49.386;8.674;2023-06-10T16:43:31;3.50;;;3.20;;
18711;SDS011;9485;49.386;8.674;2023-06-10T16:48:52;3.70;;;3.40;;
18711;SDS011;9485;49.386;8.674;2023-06-10T16:54:13;3.80;;;3.50;;
18711;SDS011;9485;49.386;8.674;2023-06-10T16:59:35;3.08;;;2.88;;
18711;SDS011;9485;49.386;8.674;2023-06-10T17:04:56;3.70;;;2.90;;
18711;SDS011;9485;49.386;8.674;2023-06-10T17:10:17;3.33;;;3.03;;
18711;SDS011;9485;49.386;8.674;2023-06-10T17:15:39;3.40;;;2.88;;
18711;SDS011;9485;49.386;8.674;2023-06-10T17:20:59;3.40;;;3.10;;
18711;SDS011;9485;49.386;8.674;2023-06-10T17:26:21;3.25;;;3.05;;
18711;SDS011;9485;49.386;8.674;2023-06-10T17:31:43;4.15;;;3.42;;
18711;SDS011;9485;49.386;8.674;2023-06-10T17:37:04;3.17;;;2.88;;
18711;SDS011;9485;49.386;8.674;2023-06-10T17:42:24;3.35;;;2.92;;
18711;SDS011;9485;49.386;8.674;2023-06-10T17:47:46;3.92;;;3.53;;
18711;SDS011;9485;49.386;8.674;2023-06-10T17:53:07;3.50;;;3.20;;
18711;SDS011;9485;49.386;8.674;2023-06-10T17:58:28;3.10;;;2.90;;
18711;SDS011;9485;49.386;8.674;2023-06-10T18:03:50;3.10;;;2.90;;
18711;SDS011;9485;49.386;8.674;2023-06-10T18:09:11;2.90;;;2.60;;
18711;SDS011;9485;49.386;8.674;2023-06-10T18:14:32;2.60;;;2.40;;
18711;SDS011;9485;49.386;8.674;2023-06-10T18:19:54;2.55;;;2.30;;
18711;SDS011;9485;49.386;8.674;2023-06-10T18:25:15;3.05;;;2.10;;
18711;SDS011;9485;49.386;8.674;2023-06-10T18:30:36;2.38;;;2.17;;
18711;SDS011;9485;49.386;8.674;2023-06-10T18:35:58;2.53;;;2.33;;
18711;SDS011;9485;49.386;8.674;2023-06-10T18:41:19;2.38;;;2.17;;
18711;SDS011;9485;49.386;8.674;2023-06-10T18:46:40;2.95;;;2.75;;
18711;SDS011;9485;49.386;8.674;2023-06-10T18:52:02;2.45;;;2.35;;
18711;SDS011;9485;49.386;8.674;2023-06-10T18:57:24;3.25;;;2.10;;
18711;SDS011;9485;49.386;8.674;2023-06-10T19:02:45;2.60;;;2.40;;
18711;SDS011;9485;49.386;8.674;2023-06-10T19:08:07;2.60;;;2.40;;
18711;SDS011;9485;49.386;8.674;2023-06-10T19:13:27;2.42;;;2.28;;
18711;SDS011;9485;49.386;8.674;2023-06-10T19:18:49;3.10;;;2.78;;
18711;SDS011;9485;49.386;8.674;2023-06-10T19:24:11;2.85;;;2.65;;
18711;SDS011;9485;49.386;8.674;2023-06-10T19:29:32;2.78;;;2.58;;
18711;SDS011;9485;49.386;8.674;2023-06-10T19:34:53;2.90;;;2.70;;
18711;SDS011;9485;49.386;8.674;2023-06-10T19:40:15;2.75;;;2.55;;
18711;SDS011;9485;49.386;8.674;2023-06-10T19:45:35;2.60;;;2.40;;
18711;SDS011;9485;49.386;8.674;2023-06-10T19:50:56;3.42;;;3.13;;
18711;SDS011;9485;49.386;8.674;2023-06-10T19:56:18;2.83;;;2.63;;
18711;SDS011;9485;49.386;8.674;2023-06-10T20:01:41;2.80;;;2.60;;
18711;SDS011;9485;49.386;8.674;2023-06-10T20:07:05;3.38;;;3.08;;
18711;SDS011;9485;49.386;8.674;2023-06-10T20:12:27;2.80;;;2.60;;
18711;SDS011;9485;49.386;8.674;2023-06-10T20:17:48;3.47;;;3.17;;
18711;SDS011;9485;49.386;8.674;2023-06-10T20:23:10;3.72;;;3.42;;
18711;SDS011;9485;49.386;8.674;2023-06-10T20:28:32;3.20;;;3.00;;
18711;SDS011;9485;49.386;8.674;2023-06-10T20:33:54;3.50;;;3.20;;
18711;SDS011;9485;49.386;8.674;2023-06-10T20:39:14;3.35;;;3.15;;
18711;SDS011;9485;49.386;8.674;2023-06-10T20:44:37;3.25;;;2.95;;
18711;SDS011;9485;49.386;8.674;2023-06-10T20:49:57;3.88;;;3.58;;
18711;SDS011;9485;49.386;8.674;2023-06-10T20:55:18;3.78;;;3.47;;
18711;SDS011;9485;49.386;8.674;2023-06-10T21:00:40;4.05;;;3.75;;
18711;SDS011;9485;49.386;8.674;2023-06-10T21:06:01;4.50;;;3.35;;
18711;SDS011;9485;49.386;8.674;2023-06-10T21:11:22;3.75;;;3.45;;
18711;SDS011;9485;49.386;8.674;2023-06-10T21:16:45;4.15;;;3.80;;
18711;SDS011;9485;49.386;8.674;2023-06-10T21:22:05;3.65;;;3.35;;
18711;SDS011;9485;49.386;8.674;2023-06-10T21:27:26;3.78;;;3.45;;
18711;SDS011;9485;49.386;8.674;2023-06-10T21:32:48;3.63;;;3.33;;
18711;SDS011;9485;49.386;8.674;2023-06-10T21:38:09;4.30;;;3.83;;
18711;SDS011;9485;49.386;8.674;2023-06-10T21:43:29;4.68;;;3.78;;
18711;SDS011;9485;49.386;8.674;2023-06-10T21:48:55;5.28;;;4.00;;
18711;SDS011;9485;49.386;8.674;2023-06-10T21:54:16;3.70;;;3.40;;
18711;SDS011;9485;49.386;8.674;2023-06-10T21:59:36;4.00;;;3.55;;
18711;SDS011;9485;49.386;8.674;2023-06-10T22:05:00;4.18;;;3.78;;
18711;SDS011;9485;49.386;8.674;2023-06-10T22:10:20;3.55;;;3.25;;
18711;SDS011;9485;49.386;8.674;2023-06-10T22:15:41;4.18;;;3.35;;
18711;SDS011;9485;49.386;8.674;2023-06-10T22:21:03;3.60;;;3.28;;
18711;SDS011;9485;49.386;8.674;2023-06-10T22:26:25;3.78;;;3.47;;
18711;SDS011;9485;49.386;8.674;2023-06-10T22:31:45;3.45;;;3.17;;
18711;SDS011;9485;49.386;8.674;2023-06-10T22:37:07;3.90;;;3.60;;
18711;SDS011;9485;49.386;8.674;2023-06-10T22:42:28;4.40;;;3.78;;
18711;SDS011;9485;49.386;8.674;2023-06-10T22:47:49;4.97;;;3.65;;
18711;SDS011;9485;49.386;8.674;2023-06-10T22:53:11;4.05;;;3.65;;
18711;SDS011;9485;49.386;8.674;2023-06-10T22:58:32;3.60;;;3.30;;
18711;SDS011;9485;49.386;8.674;2023-06-10T23:03:53;3.70;;;3.05;;
18711;SDS011;9485;49.386;8.674;2023-06-10T23:09:15;3.47;;;3.17;;
18711;SDS011;9485;49.386;8.674;2023-06-10T23:14:35;3.63;;;3.33;;
18711;SDS011;9485;49.386;8.674;2023-06-10T23:19:56;3.67;;;3.38;;
18711;SDS011;9485;49.386;8.674;2023-06-10T23:25:19;4.32;;;3.47;;
18711;SDS011;9485;49.386;8.674;2023-06-10T23:30:41;3.80;;;3.33;;
18711;SDS011;9485;49.386;8.674;2023-06-10T23:36:02;4.15;;;3.75;;
18711;SDS011;9485;49.386;8.674;2023-06-10T23:41:24;3.67;;;3.38;;
18711;SDS011;9485;49.386;8.674;2023-06-10T23:46:45;4.25;;;3.85;;
18711;SDS011;9485;49.386;8.674;2023-06-10T23:52:06;3.88;;;3.58;;
18711;SDS011;9485;49.386;8.674;2023-06-10T23:57:29;4.38;;;3.50;;
